Time;durP1;ratioP1;P1;durP2;ratioP2;P2;SDS_P1;SDS_P2;PMS_P1;PMS_P2;Temp;Humidity;BMP_temperature;BMP_pressure;BME280_temperature;BME280_humidity;BME280_pressure;Samples;Min_cycle;Max_cycle;Signal;HPM_P1;HPM_P2
2023/01/22 00:01:32;;;;;;;58.63;26.07;;;0.80;99.90;;;;;;5074555;28;20173;-71
2023/01/22 00:03:59;;;;;;;56.03;25.33;;;0.60;99.90;;;;;;5074372;28;20532;-71
2023/01/22 00:06:24;;;;;;;57.53;25.53;;;0.50;99.90;;;;;;5074264;28;20204;-71
2023/01/22 00:08:52;;;;;;;59.30;26.47;;;0.40;99.90;;;;;;5074413;28;20179;-71
2023/01/22 00:11:18;;;;;;;54.33;24.07;;;0.50;99.90;;;;;;5074363;28;20161;-71
2023/01/22 00:13:45;;;;;;;51.60;23.60;;;0.50;99.90;;;;;;5074479;28;20176;-71
2023/01/22 00:16:15;;;;;;;48.13;23.17;;;0.40;99.90;;;;;;5074526;28;20203;-71
2023/01/22 00:18:42;;;;;;;52.33;22.77;;;0.30;99.90;;;;;;5073815;28;20248;-71
2023/01/22 00:21:08;;;;;;;51.67;19.67;;;0.30;99.90;;;;;;5074197;28;20174;-71
2023/01/22 00:23:34;;;;;;;46.80;22.37;;;0.20;99.90;;;;;;5074095;28;20172;-71
2023/01/22 00:26:05;;;;;;;47.73;19.93;;;0.20;99.90;;;;;;5074005;28;20253;-71
2023/01/22 00:28:31;;;;;;;50.10;22.77;;;0.20;99.90;;;;;;5074374;28;20176;-71
2023/01/22 00:30:59;;;;;;;55.47;24.87;;;0.10;99.90;;;;;;5074049;28;20178;-70
2023/01/22 00:33:25;;;;;;;50.00;22.07;;;0.20;99.90;;;;;;5073530;28;20169;-71
2023/01/22 00:35:50;;;;;;;58.67;26.07;;;0.10;99.90;;;;;;5072812;28;20600;-71
2023/01/22 00:38:16;;;;;;;51.67;25.07;;;0.20;99.90;;;;;;5072712;28;20189;-70
2023/01/22 00:40:41;;;;;;;56.77;25.80;;;0.20;99.90;;;;;;5073728;28;20535;-71
2023/01/22 00:43:07;;;;;;;63.53;26.67;;;0.20;99.90;;;;;;5073755;28;20210;-70
2023/01/22 00:45:33;;;;;;;60.43;26.80;;;0.40;99.90;;;;;;5073744;28;20957;-71
2023/01/22 00:47:59;;;;;;;57.00;25.10;;;0.50;99.90;;;;;;5073069;28;20223;-71
2023/01/22 00:50:26;;;;;;;50.47;23.70;;;0.50;99.90;;;;;;5073355;28;20242;-71
2023/01/22 00:52:51;;;;;;;50.23;24.27;;;0.40;99.90;;;;;;5073739;28;20203;-71
2023/01/22 00:55:18;;;;;;;52.43;22.93;;;0.30;99.90;;;;;;5073476;28;20237;-70
2023/01/22 00:57:43;;;;;;;54.03;23.90;;;0.30;99.90;;;;;;5073476;28;20647;-70
2023/01/22 01:00:10;;;;;;;53.20;24.73;;;0.30;99.90;;;;;;5073590;28;20168;-71
2023/01/22 01:03:25;;;;;;;49.53;22.20;;;0.40;99.90;;;;;;5073009;28;20167;-70
2023/01/22 01:05:21;;;;;;;52.73;24.30;;;0.30;99.90;;;;;;5073232;28;20208;-72
2023/01/22 01:07:47;;;;;;;50.57;22.20;;;0.20;99.90;;;;;;5071965;28;20170;-71
2023/01/22 01:10:12;;;;;;;52.80;23.73;;;0.10;99.90;;;;;;5073322;28;20174;-72
2023/01/22 01:12:38;;;;;;;53.03;24.43;;;0.00;99.90;;;;;;5073330;28;20170;-70
2023/01/22 01:15:04;;;;;;;52.73;24.40;;;0.00;99.90;;;;;;5073249;28;20202;-71
2023/01/22 01:17:29;;;;;;;56.57;25.37;;;0.00;99.90;;;;;;5073056;28;20505;-70
2023/01/22 01:19:55;;;;;;;48.50;21.83;;;0.10;99.90;;;;;;5073345;28;20289;-70
2023/01/22 01:22:20;;;;;;;55.87;24.60;;;0.10;99.90;;;;;;5072072;28;20172;-70
2023/01/22 01:24:46;;;;;;;57.93;25.67;;;0.00;99.90;;;;;;5073146;28;20294;-70
2023/01/22 01:27:12;;;;;;;55.77;26.13;;;0.00;99.90;;;;;;5073185;28;20164;-71
2023/01/22 01:29:37;;;;;;;56.60;26.63;;;0.10;99.90;;;;;;5071654;28;20279;-71
2023/01/22 01:32:03;;;;;;;58.40;25.57;;;0.10;99.90;;;;;;5072903;28;20171;-71
2023/01/22 01:34:28;;;;;;;52.33;25.27;;;0.10;99.90;;;;;;5073333;28;20662;-72
2023/01/22 01:36:54;;;;;;;55.13;25.43;;;0.20;99.90;;;;;;5073165;28;20157;-71
2023/01/22 01:39:20;;;;;;;54.67;23.53;;;0.20;99.90;;;;;;5071613;28;20174;-71
2023/01/22 01:41:45;;;;;;;51.23;23.40;;;0.00;99.90;;;;;;5073099;28;20169;-71
2023/01/22 01:44:17;;;;;;;54.20;24.27;;;0.00;99.90;;;;;;5072805;28;20627;-70
2023/01/22 01:47:00;;;;;;;63.13;24.87;;;0.00;99.90;;;;;;5072425;28;20248;-71
2023/01/22 01:49:36;;;;;;;59.30;25.97;;;-0.10;99.90;;;;;;5073050;28;20172;-71
2023/01/22 01:52:06;;;;;;;56.57;24.70;;;0.00;99.90;;;;;;5072914;28;20162;-71
2023/01/22 01:54:32;;;;;;;53.30;23.97;;;0.10;99.90;;;;;;5071504;28;20662;-71
2023/01/22 01:57:16;;;;;;;58.70;26.07;;;0.20;99.90;;;;;;5072931;28;20560;-71
2023/01/22 01:59:45;;;;;;;53.17;23.93;;;0.30;99.90;;;;;;5072691;28;20168;-71
2023/01/22 02:02:11;;;;;;;49.77;22.93;;;0.30;99.90;;;;;;5074149;28;20181;-71
2023/01/22 02:04:36;;;;;;;57.17;24.90;;;0.10;99.90;;;;;;5076662;28;20172;-70
2023/01/22 02:07:04;;;;;;;54.13;23.73;;;0.20;99.90;;;;;;5076895;28;20180;-71
2023/01/22 02:09:30;;;;;;;48.23;22.27;;;0.20;99.90;;;;;;5076711;28;20168;-70
2023/01/22 02:11:56;;;;;;;54.13;24.77;;;0.10;99.90;;;;;;5076661;28;20555;-71
2023/01/22 02:14:29;;;;;;;51.43;23.77;;;0.10;99.90;;;;;;5075125;28;20179;-71
2023/01/22 02:17:07;;;;;;;51.93;23.93;;;0.20;99.90;;;;;;5076562;28;20207;-71
2023/01/22 02:19:33;;;;;;;57.47;25.87;;;0.20;99.90;;;;;;5076389;28;20669;-71
2023/01/22 02:21:59;;;;;;;55.97;25.50;;;0.40;99.90;;;;;;5076541;28;20169;-71
2023/01/22 02:24:28;;;;;;;57.33;25.90;;;0.50;99.90;;;;;;5076209;28;20506;-70
2023/01/22 02:26:54;;;;;;;51.47;24.27;;;0.50;99.90;;;;;;5076438;28;20180;-70
2023/01/22 02:29:20;;;;;;;54.87;25.67;;;0.50;99.90;;;;;;5076013;28;20195;-70
2023/01/22 02:31:46;;;;;;;54.30;25.37;;;0.40;99.90;;;;;;5076360;28;20181;-71
2023/01/22 02:34:11;;;;;;;55.13;26.63;;;0.50;99.90;;;;;;5076078;28;20169;-69
2023/01/22 02:36:38;;;;;;;51.43;25.63;;;0.60;99.90;;;;;;5076136;28;20183;-70
2023/01/22 02:39:04;;;;;;;55.20;25.97;;;0.70;99.90;;;;;;5076220;28;20172;-70
2023/01/22 02:41:30;;;;;;;50.47;24.67;;;0.80;99.90;;;;;;5076039;28;20179;-70
2023/01/22 02:43:56;;;;;;;54.77;25.63;;;0.90;99.90;;;;;;5075702;28;20247;-70
2023/01/22 02:46:22;;;;;;;52.13;25.07;;;0.90;99.90;;;;;;5075685;28;20315;-70
2023/01/22 02:48:47;;;;;;;54.67;25.77;;;1.00;99.90;;;;;;5075672;28;20176;-71
2023/01/22 02:51:13;;;;;;;52.37;25.77;;;1.20;99.90;;;;;;5076324;28;20172;-71
2023/01/22 02:53:38;;;;;;;56.27;26.73;;;1.10;99.90;;;;;;5075867;28;20176;-70
2023/01/22 02:56:09;;;;;;;50.63;25.50;;;1.20;99.90;;;;;;5075974;28;20283;-69
2023/01/22 02:58:35;;;;;;;52.23;25.03;;;1.20;99.90;;;;;;5075559;28;20211;-70
2023/01/22 03:01:21;;;;;;;53.23;25.80;;;1.30;99.90;;;;;;5075805;28;20297;-70
2023/01/22 03:03:48;;;;;;;49.27;24.90;;;1.30;99.90;;;;;;5075736;28;20267;-70
2023/01/22 03:06:14;;;;;;;47.83;24.93;;;1.30;99.90;;;;;;5075660;28;20764;-70
2023/01/22 03:08:42;;;;;;;52.77;26.13;;;1.40;99.90;;;;;;5074466;28;20221;-70
2023/01/22 03:11:08;;;;;;;55.27;26.73;;;1.30;99.90;;;;;;5075511;28;20628;-69
2023/01/22 03:21:47;;;;;;;51.10;24.73;;;1.40;99.90;;;;;;5075892;28;20179;-70
2023/01/22 03:24:13;;;;;;;48.37;25.13;;;1.40;99.90;;;;;;5075471;28;20169;-70
2023/01/22 03:26:39;;;;;;;51.00;24.33;;;1.40;99.90;;;;;;5075048;28;20212;-69
2023/01/22 03:29:04;;;;;;;48.73;25.10;;;1.40;99.90;;;;;;5075343;28;20179;-70
2023/01/22 03:31:30;;;;;;;50.17;25.40;;;1.40;99.90;;;;;;5075138;28;20172;-69
2023/01/22 03:33:56;;;;;;;51.23;24.53;;;1.50;99.90;;;;;;5075473;28;20607;-69
2023/01/22 03:36:22;;;;;;;50.70;24.63;;;1.60;99.90;;;;;;5075290;28;20237;-69
2023/01/22 03:38:48;;;;;;;46.97;23.67;;;1.60;99.90;;;;;;5073897;28;20263;-69
2023/01/22 03:41:15;;;;;;;49.80;24.93;;;1.50;99.90;;;;;;5074638;28;20172;-71
2023/01/22 03:43:41;;;;;;;46.87;24.00;;;1.40;99.90;;;;;;5075041;28;20623;-69
2023/01/22 03:46:11;;;;;;;49.33;25.27;;;1.40;99.90;;;;;;5074821;28;20306;-68
2023/01/22 03:48:37;;;;;;;52.10;24.63;;;1.40;99.90;;;;;;5074965;28;20176;-70
2023/01/22 03:51:08;;;;;;;50.90;24.80;;;1.40;99.90;;;;;;5074798;28;20173;-70
2023/01/22 03:53:34;;;;;;;47.70;24.33;;;1.40;99.90;;;;;;5074847;28;20767;-69
2023/01/22 03:56:02;;;;;;;52.20;25.83;;;1.40;99.90;;;;;;5074523;28;20224;-70
2023/01/22 03:58:29;;;;;;;54.40;25.20;;;1.50;99.90;;;;;;5074554;28;20173;-69
2023/01/22 04:00:56;;;;;;;49.93;24.80;;;1.50;99.90;;;;;;5074618;28;20218;-70
2023/01/22 04:03:26;;;;;;;49.90;25.40;;;1.60;99.90;;;;;;5074644;28;20239;-70
2023/01/22 04:05:52;;;;;;;49.17;24.57;;;1.60;99.90;;;;;;5074354;28;20237;-70
2023/01/22 04:08:18;;;;;;;48.00;25.53;;;1.50;99.90;;;;;;5074342;28;20612;-70
2023/01/22 04:10:44;;;;;;;48.53;25.73;;;1.60;99.90;;;;;;5074045;28;20692;-69
2023/01/22 04:13:09;;;;;;;48.67;24.20;;;1.40;99.90;;;;;;5074281;28;20168;-70
2023/01/22 04:15:35;;;;;;;47.47;23.97;;;1.30;99.90;;;;;;5072992;28;20179;-70
2023/01/22 04:18:01;;;;;;;48.90;25.23;;;1.20;99.90;;;;;;5074042;28;20516;-70
2023/01/22 04:20:26;;;;;;;46.90;23.30;;;1.00;99.90;;;;;;5074052;28;20176;-70
2023/01/22 04:22:52;;;;;;;48.17;24.90;;;0.90;99.90;;;;;;5074134;28;20181;-70
2023/01/22 04:25:17;;;;;;;47.77;24.60;;;0.90;99.90;;;;;;5072956;28;20211;-70
2023/01/22 04:27:44;;;;;;;51.43;25.27;;;0.90;99.90;;;;;;5074169;28;20366;-70
2023/01/22 04:30:10;;;;;;;51.20;25.83;;;1.00;99.90;;;;;;5073942;28;20177;-70
2023/01/22 04:32:35;;;;;;;52.23;25.40;;;1.20;99.90;;;;;;5073960;28;20664;-70
2023/01/22 04:35:02;;;;;;;45.57;24.93;;;1.30;99.90;;;;;;5073882;28;20298;-70
2023/01/22 04:37:29;;;;;;;48.07;25.07;;;1.30;99.90;;;;;;5074089;28;20221;-70
2023/01/22 04:39:54;;;;;;;49.27;24.60;;;1.40;99.90;;;;;;5073651;28;20176;-70
2023/01/22 04:42:20;;;;;;;52.27;25.67;;;1.30;99.90;;;;;;5073497;28;20179;-70
2023/01/22 04:44:45;;;;;;;51.40;26.27;;;1.40;99.90;;;;;;5073327;28;20226;-70
2023/01/22 04:47:11;;;;;;;51.50;25.47;;;1.40;99.90;;;;;;5073449;28;20224;-70
2023/01/22 04:49:36;;;;;;;48.57;25.23;;;1.40;99.90;;;;;;5073359;28;20520;-69
2023/01/22 04:52:02;;;;;;;49.63;25.90;;;1.30;99.90;;;;;;5073602;28;20200;-69
2023/01/22 04:54:28;;;;;;;50.87;25.37;;;1.20;99.90;;;;;;5073232;28;20271;-70
2023/01/22 04:56:53;;;;;;;49.23;25.23;;;1.10;99.90;;;;;;5073550;28;20169;-69
2023/01/22 04:59:19;;;;;;;50.10;25.57;;;1.10;99.90;;;;;;5073363;28;20184;-69
2023/01/22 05:01:45;;;;;;;51.07;25.90;;;1.10;99.90;;;;;;5073395;28;20239;-69
2023/01/22 05:04:10;;;;;;;48.70;24.50;;;1.10;99.90;;;;;;5073244;28;20722;-69
2023/01/22 05:06:36;;;;;;;49.67;25.90;;;1.10;99.90;;;;;;5073297;28;20269;-70
2023/01/22 05:09:02;;;;;;;49.67;24.97;;;1.20;99.90;;;;;;5072714;28;20165;-69
2023/01/22 05:11:27;;;;;;;50.80;26.93;;;1.20;99.90;;;;;;5073480;28;20628;-69
2023/01/22 05:13:53;;;;;;;48.07;24.70;;;1.30;99.90;;;;;;5072991;28;20176;-69
2023/01/22 05:16:19;;;;;;;48.13;25.50;;;1.30;99.90;;;;;;5073124;28;20245;-69
2023/01/22 05:18:44;;;;;;;46.70;24.10;;;1.40;99.90;;;;;;5073081;28;20620;-69
2023/01/22 05:21:10;;;;;;;46.87;24.33;;;1.50;99.90;;;;;;5073069;28;20172;-70
2023/01/22 05:23:36;;;;;;;47.27;25.40;;;1.60;99.90;;;;;;5072829;28;20195;-69
2023/01/22 05:26:01;;;;;;;41.40;23.13;;;1.70;99.90;;;;;;5072878;28;20728;-70
2023/01/22 05:28:27;;;;;;;43.10;23.77;;;1.70;99.90;;;;;;5071946;28;20222;-70
2023/01/22 05:30:52;;;;;;;39.43;22.83;;;1.80;99.90;;;;;;5072803;28;20212;-70
2023/01/22 05:33:18;;;;;;;43.33;23.27;;;1.80;99.90;;;;;;5072778;28;20176;-70
2023/01/22 05:35:44;;;;;;;42.87;23.23;;;1.80;99.90;;;;;;5073191;28;20216;-70
2023/01/22 05:38:09;;;;;;;40.33;22.13;;;1.80;99.90;;;;;;5073145;28;20173;-70
2023/01/22 05:40:35;;;;;;;45.10;23.83;;;1.80;99.90;;;;;;5072825;28;20264;-70
2023/01/22 05:43:03;;;;;;;38.83;22.37;;;1.80;99.90;;;;;;5072996;28;20180;-69
2023/01/22 05:45:29;;;;;;;39.63;21.40;;;1.80;99.90;;;;;;5070959;28;20200;-69
2023/01/22 05:47:54;;;;;;;38.10;21.83;;;1.90;99.60;;;;;;5072262;28;20691;-68
2023/01/22 05:50:21;;;;;;;40.83;22.20;;;1.90;98.70;;;;;;5072907;28;20172;-70
2023/01/22 05:52:46;;;;;;;37.37;21.30;;;1.80;97.90;;;;;;5072414;28;20176;-70
2023/01/22 05:55:12;;;;;;;41.80;22.17;;;1.80;96.60;;;;;;5072772;28;20196;-70
2023/01/22 05:57:38;;;;;;;39.13;20.03;;;1.50;95.10;;;;;;5071239;28;20173;-70
2023/01/22 06:00:05;;;;;;;36.17;19.77;;;1.50;97.70;;;;;;5072580;28;20211;-71
2023/01/22 06:02:31;;;;;;;29.87;14.97;;;1.40;98.90;;;;;;5072673;28;20560;-69
2023/01/22 06:04:56;;;;;;;33.80;19.73;;;1.30;99.70;;;;;;5072565;28;20287;-69
2023/01/22 06:07:22;;;;;;;36.40;19.27;;;1.30;99.90;;;;;;5072398;28;20181;-70
2023/01/22 06:09:48;;;;;;;34.03;19.20;;;1.30;99.90;;;;;;5072248;28;20165;-71
2023/01/22 06:12:14;;;;;;;33.00;19.97;;;1.30;99.90;;;;;;5072309;28;20180;-71
2023/01/22 06:14:40;;;;;;;26.80;17.93;;;1.30;99.90;;;;;;5072409;28;20226;-70
2023/01/22 06:17:06;;;;;;;30.47;17.17;;;1.30;98.80;;;;;;5072488;28;20176;-70
2023/01/22 06:19:33;;;;;;;29.57;19.10;;;1.20;96.50;;;;;;5072403;28;20624;-70
2023/01/22 06:21:59;;;;;;;29.53;17.87;;;1.10;96.90;;;;;;5072346;28;20211;-70
2023/01/22 06:24:24;;;;;;;26.50;15.37;;;1.10;98.10;;;;;;5072801;28;20249;-70
2023/01/22 06:26:50;;;;;;;25.43;14.77;;;1.00;97.30;;;;;;5071227;28;20671;-70
2023/01/22 06:29:15;;;;;;;29.40;18.77;;;0.90;97.50;;;;;;5072526;28;20176;-70
2023/01/22 06:31:41;;;;;;;25.37;13.57;;;0.80;99.10;;;;;;5072554;28;20180;-72
2023/01/22 06:34:07;;;;;;;26.73;16.13;;;0.80;99.90;;;;;;5072376;28;20506;-72
2023/01/22 06:36:33;;;;;;;29.47;18.40;;;0.80;99.90;;;;;;5072051;28;20643;-71
2023/01/22 06:38:58;;;;;;;30.80;19.10;;;0.70;99.90;;;;;;5072452;28;20171;-71
2023/01/22 06:41:24;;;;;;;31.93;19.53;;;0.80;99.90;;;;;;5072283;28;20181;-71
2023/01/22 06:43:50;;;;;;;35.57;21.03;;;0.80;99.90;;;;;;5072275;28;20164;-70
2023/01/22 06:46:15;;;;;;;32.53;19.17;;;0.80;99.90;;;;;;5071871;28;20262;-70
2023/01/22 06:48:42;;;;;;;30.77;19.30;;;0.80;99.90;;;;;;5073955;28;20186;-70
2023/01/22 06:51:09;;;;;;;33.27;19.23;;;0.80;99.90;;;;;;5075237;28;20165;-70
2023/01/22 06:53:35;;;;;;;30.73;19.40;;;0.90;99.90;;;;;;5074426;28;20570;-70
2023/01/22 06:56:01;;;;;;;34.50;20.60;;;1.00;99.90;;;;;;5075763;28;20185;-69
2023/01/22 06:58:27;;;;;;;31.33;17.57;;;1.00;99.90;;;;;;5075535;28;20179;-71
2023/01/22 07:00:52;;;;;;;35.10;20.47;;;0.90;99.90;;;;;;5075403;28;20643;-71
2023/01/22 07:03:18;;;;;;;27.10;14.13;;;0.80;99.10;;;;;;5075659;28;20168;-71
2023/01/22 07:05:44;;;;;;;31.57;17.67;;;0.70;99.20;;;;;;5075056;28;20604;-71
2023/01/22 07:08:15;;;;;;;33.50;20.30;;;0.70;99.90;;;;;;5075484;28;20618;-71
2023/01/22 07:10:41;;;;;;;33.47;19.13;;;0.70;99.90;;;;;;5075414;28;20271;-71
2023/01/22 07:13:09;;;;;;;30.27;16.57;;;0.70;99.90;;;;;;5075282;28;20193;-71
2023/01/22 07:15:34;;;;;;;29.07;18.50;;;0.70;99.90;;;;;;5075297;28;20167;-69
2023/01/22 07:18:00;;;;;;;32.10;17.17;;;0.70;99.00;;;;;;5075103;28;20186;-71
2023/01/22 07:20:26;;;;;;;29.80;18.37;;;0.70;99.60;;;;;;5073633;28;20175;-71
2023/01/22 07:22:51;;;;;;;32.13;18.10;;;0.70;99.90;;;;;;5075298;28;20171;-71
2023/01/22 07:25:18;;;;;;;39.93;21.07;;;0.70;99.90;;;;;;5074854;28;20208;-71
2023/01/22 07:27:44;;;;;;;29.13;16.97;;;0.70;99.90;;;;;;5074015;28;20507;-71
2023/01/22 07:30:10;;;;;;;31.80;17.77;;;0.70;99.90;;;;;;5074750;28;20186;-71
2023/01/22 07:32:35;;;;;;;38.27;22.33;;;0.70;99.90;;;;;;5074983;28;20179;-70
2023/01/22 07:35:01;;;;;;;35.90;21.73;;;0.70;99.90;;;;;;5074847;28;20170;-71
2023/01/22 07:37:26;;;;;;;38.70;20.03;;;0.60;99.90;;;;;;5073488;28;20183;-71
2023/01/22 07:39:52;;;;;;;34.73;21.23;;;0.60;99.90;;;;;;5074809;28;20178;-70
2023/01/22 07:42:18;;;;;;;34.67;19.70;;;0.60;99.90;;;;;;5075226;28;20534;-70
2023/01/22 07:44:44;;;;;;;32.27;18.30;;;0.60;99.90;;;;;;5074587;28;20167;-72
2023/01/22 07:47:09;;;;;;;37.90;20.93;;;0.60;99.90;;;;;;5074633;28;20231;-72
2023/01/22 07:49:35;;;;;;;36.57;22.17;;;0.50;99.90;;;;;;5073877;28;20164;-71
2023/01/22 07:52:00;;;;;;;34.67;21.30;;;0.60;99.90;;;;;;5074692;28;20244;-71
2023/01/22 07:54:26;;;;;;;40.73;22.30;;;0.60;99.90;;;;;;5074489;28;20645;-71
2023/01/22 07:56:52;;;;;;;39.53;23.40;;;0.60;99.90;;;;;;5074626;28;20180;-71
2023/01/22 07:59:17;;;;;;;36.47;20.73;;;0.60;99.50;;;;;;5073306;28;20169;-72
2023/01/22 08:01:43;;;;;;;37.17;22.23;;;0.60;99.80;;;;;;5074125;28;20277;-72
2023/01/22 08:04:08;;;;;;;31.67;19.33;;;0.60;99.90;;;;;;5074404;28;20175;-71
2023/01/22 08:06:34;;;;;;;28.33;17.73;;;0.60;99.90;;;;;;5074543;28;20253;-72
2023/01/22 08:09:00;;;;;;;32.03;19.30;;;0.60;97.50;;;;;;5074173;28;20706;-70
2023/01/22 08:11:27;;;;;;;32.87;19.30;;;0.70;95.80;;;;;;5074060;28;20174;-72
2023/01/22 08:13:53;;;;;;;31.47;20.70;;;0.70;93.20;;;;;;5074389;28;20164;-72
2023/01/22 08:16:19;;;;;;;34.70;20.27;;;0.70;94.10;;;;;;5073473;28;20233;-72
2023/01/22 08:18:45;;;;;;;31.00;19.10;;;0.90;94.30;;;;;;5073972;28;20197;-72
2023/01/22 08:21:11;;;;;;;26.23;17.97;;;0.80;90.80;;;;;;5074144;28;20211;-71
2023/01/22 08:23:36;;;;;;;31.40;20.10;;;0.90;91.80;;;;;;5073697;28;20180;-71
2023/01/22 08:26:03;;;;;;;30.03;19.33;;;0.80;90.10;;;;;;5073815;28;20383;-71
2023/01/22 08:28:30;;;;;;;29.47;19.13;;;0.80;90.80;;;;;;5073713;28;20195;-70
2023/01/22 08:31:00;;;;;;;33.10;20.23;;;0.80;92.50;;;;;;5073663;28;20176;-71
2023/01/22 08:33:27;;;;;;;33.27;19.73;;;0.70;93.20;;;;;;5073697;28;20168;-70
2023/01/22 08:35:53;;;;;;;29.70;19.70;;;0.90;94.80;;;;;;5073478;28;20208;-71
2023/01/22 08:38:18;;;;;;;30.40;19.93;;;1.00;92.10;;;;;;5073616;28;20211;-70
2023/01/22 08:40:49;;;;;;;28.80;19.70;;;1.00;89.80;;;;;;5073689;28;20323;-71
2023/01/22 08:43:14;;;;;;;26.23;18.47;;;1.10;90.20;;;;;;5073727;28;20202;-71
2023/01/22 08:45:40;;;;;;;27.17;18.83;;;1.10;88.60;;;;;;5071611;28;20680;-70
2023/01/22 08:48:05;;;;;;;32.40;20.10;;;1.20;89.70;;;;;;5072710;28;20269;-70
2023/01/22 08:50:31;;;;;;;37.10;19.90;;;1.20;84.20;;;;;;5071702;28;20181;-71
2023/01/22 08:52:57;;;;;;;27.67;19.17;;;1.40;82.40;;;;;;5073326;28;20172;-71
2023/01/22 08:55:22;;;;;;;29.63;18.93;;;1.30;77.90;;;;;;5073110;28;20192;-70
2023/01/22 08:57:53;;;;;;;29.60;18.80;;;1.20;77.70;;;;;;5073112;28;20218;-72
2023/01/22 09:00:19;;;;;;;33.03;19.80;;;1.20;83.20;;;;;;5072945;28;20306;-71
2023/01/22 09:02:44;;;;;;;31.30;19.50;;;1.10;82.30;;;;;;5071621;28;20190;-71
2023/01/22 09:05:10;;;;;;;27.47;18.43;;;1.10;88.50;;;;;;5073084;28;20204;-71
2023/01/22 09:07:35;;;;;;;30.57;19.90;;;1.10;89.10;;;;;;5073100;28;20164;-71
2023/01/22 09:10:01;;;;;;;28.63;19.37;;;1.20;91.00;;;;;;5072760;28;20172;-71
2023/01/22 09:12:27;;;;;;;30.87;19.87;;;1.30;90.60;;;;;;5071119;28;20525;-70
2023/01/22 09:14:52;;;;;;;31.07;19.27;;;1.40;87.00;;;;;;5072907;28;20204;-69
2023/01/22 09:17:18;;;;;;;31.43;19.60;;;1.50;86.00;;;;;;5071796;28;20183;-71
2023/01/22 09:19:43;;;;;;;29.53;17.83;;;1.50;79.40;;;;;;5072723;28;20617;-71
2023/01/22 09:22:09;;;;;;;27.00;17.73;;;1.40;68.70;;;;;;5072628;28;20175;-70
2023/01/22 09:24:34;;;;;;;29.80;19.63;;;1.40;77.40;;;;;;5071315;28;20177;-71
2023/01/22 09:27:00;;;;;;;30.77;19.77;;;1.30;77.60;;;;;;5073100;28;20219;-71
2023/01/22 09:29:26;;;;;;;29.20;19.40;;;1.40;81.00;;;;;;5072573;28;20255;-72
2023/01/22 09:31:51;;;;;;;29.80;18.83;;;1.40;81.60;;;;;;5073081;28;20196;-70
2023/01/22 09:34:17;;;;;;;29.63;18.67;;;1.50;80.90;;;;;;5072640;28;20172;-71
2023/01/22 09:36:42;;;;;;;27.63;17.80;;;1.50;77.50;;;;;;5072837;28;20173;-71
2023/01/22 09:39:08;;;;;;;30.47;19.63;;;1.40;70.80;;;;;;5072036;28;20655;-71
2023/01/22 09:41:47;;;;;;;29.30;18.57;;;1.40;79.90;;;;;;5072854;28;20188;-71
2023/01/22 09:44:33;;;;;;;29.23;18.83;;;1.30;78.00;;;;;;5072410;28;20172;-71
2023/01/22 09:47:22;;;;;;;30.90;19.10;;;1.30;83.90;;;;;;5072456;28;20231;-71
2023/01/22 09:50:00;;;;;;;27.47;18.93;;;1.30;84.50;;;;;;5072382;28;20199;-70
2023/01/22 09:52:31;;;;;;;27.83;19.27;;;1.40;82.90;;;;;;5072817;28;20551;-70
2023/01/22 09:54:56;;;;;;;30.67;19.63;;;1.30;75.20;;;;;;5072256;28;20261;-70
2023/01/22 09:57:22;;;;;;;29.57;18.70;;;1.30;81.90;;;;;;5072788;28;20164;-70
2023/01/22 09:59:54;;;;;;;30.70;19.17;;;1.40;81.40;;;;;;5072018;28;20655;-71
2023/01/22 10:02:34;;;;;;;30.60;19.33;;;1.20;81.90;;;;;;5071585;28;20177;-71
2023/01/22 10:05:43;;;;;;;26.93;19.10;;;1.40;87.10;;;;;;5072506;28;20690;-70
2023/01/22 10:08:11;;;;;;;31.47;17.37;;;1.60;86.20;;;;;;5070164;28;20188;-70
2023/01/22 10:10:38;;;;;;;26.40;17.57;;;1.70;79.80;;;;;;5072463;28;20538;-71
2023/01/22 10:13:22;;;;;;;23.87;15.30;;;1.80;73.50;;;;;;5072099;28;20199;-70
2023/01/22 10:15:50;;;;;;;23.03;15.20;;;1.70;61.40;;;;;;5072174;28;20726;-70
2023/01/22 10:18:37;;;;;;;28.33;15.43;;;1.50;66.20;;;;;;5071980;28;20229;-70
2023/01/22 10:21:10;;;;;;;25.30;15.53;;;1.40;80.10;;;;;;5070891;28;20494;-71
2023/01/22 10:23:36;;;;;;;22.43;14.47;;;1.60;85.30;;;;;;5072972;28;20249;-70
2023/01/22 10:26:20;;;;;;;22.23;15.00;;;1.50;79.50;;;;;;5074211;28;20687;-70
2023/01/22 10:28:49;;;;;;;22.77;13.80;;;1.70;78.70;;;;;;5075631;28;20533;-70
2023/01/22 10:31:29;;;;;;;21.63;14.20;;;1.60;75.60;;;;;;5075795;28;20169;-70
2023/01/22 10:33:57;;;;;;;23.63;14.23;;;1.60;76.50;;;;;;5076064;28;20211;-69
2023/01/22 10:36:23;;;;;;;22.37;13.77;;;1.60;77.20;;;;;;5075403;28;20651;-70
2023/01/22 10:38:48;;;;;;;20.13;14.20;;;1.60;74.40;;;;;;5074623;28;20169;-70
2023/01/22 10:41:19;;;;;;;21.37;13.90;;;1.70;76.70;;;;;;5075319;28;20612;-70
2023/01/22 10:43:47;;;;;;;22.00;15.00;;;1.80;77.30;;;;;;5075725;28;20649;-69
2023/01/22 10:46:19;;;;;;;24.47;15.20;;;1.80;73.30;;;;;;5073619;28;20238;-71
2023/01/22 10:48:58;;;;;;;21.57;14.33;;;1.80;72.80;;;;;;5075770;28;20167;-71
2023/01/22 10:51:31;;;;;;;23.40;15.27;;;1.80;70.60;;;;;;5073783;28;20545;-71
2023/01/22 10:53:58;;;;;;;22.73;15.03;;;1.80;73.20;;;;;;5075399;28;20331;-70
2023/01/22 10:56:39;;;;;;;23.90;15.17;;;1.90;72.00;;;;;;5074946;28;20165;-70
2023/01/22 10:59:21;;;;;;;20.80;14.20;;;2.00;70.50;;;;;;5075598;28;20169;-70
2023/01/22 11:01:48;;;;;;;22.90;15.70;;;1.90;63.00;;;;;;5075761;28;20176;-71
2023/01/22 11:04:32;;;;;;;23.73;16.00;;;1.80;64.30;;;;;;5073514;28;20176;-71
2023/01/22 11:07:17;;;;;;;21.27;15.90;;;1.80;71.60;;;;;;5075088;28;20346;-71
2023/01/22 11:10:16;;;;;;;24.63;16.33;;;1.90;74.10;;;;;;5075106;28;20636;-71
2023/01/22 11:12:48;;;;;;;24.40;16.33;;;2.10;74.10;;;;;;5075414;28;20218;-70
2023/01/22 11:15:55;;;;;;;25.27;16.80;;;2.00;66.20;;;;;;5075188;28;20269;-70
2023/01/22 11:18:38;;;;;;;25.93;16.37;;;2.10;67.20;;;;;;5071103;28;20192;-69
2023/01/22 11:21:14;;;;;;;25.07;14.67;;;2.10;66.40;;;;;;5074753;28;20172;-70
2023/01/22 11:24:01;;;;;;;27.33;15.70;;;2.10;63.40;;;;;;5074873;28;20164;-71
2023/01/22 11:27:04;;;;;;;22.87;14.97;;;2.10;62.60;;;;;;5074525;28;20274;-71
2023/01/22 11:29:45;;;;;;;20.93;14.53;;;2.20;64.00;;;;;;5072922;28;20531;-71
2023/01/22 11:32:39;;;;;;;21.00;14.70;;;2.20;58.60;;;;;;5074941;28;20196;-71
2023/01/22 11:35:21;;;;;;;20.93;14.83;;;2.30;57.20;;;;;;5074627;28;20184;-71
2023/01/22 11:38:13;;;;;;;25.60;15.37;;;2.10;53.50;;;;;;5074966;28;20167;-71
2023/01/22 11:41:13;;;;;;;20.83;14.23;;;2.20;59.90;;;;;;5073646;28;20169;-72
2023/01/22 11:44:16;;;;;;;23.43;15.83;;;2.10;59.70;;;;;;5074661;28;20161;-71
2023/01/22 11:46:45;;;;;;;23.63;15.50;;;2.20;59.90;;;;;;5073670;28;20323;-71
2023/01/22 11:49:30;;;;;;;24.93;14.97;;;2.10;57.40;;;;;;5074194;28;20173;-72
2023/01/22 11:52:25;;;;;;;22.00;14.57;;;2.00;64.70;;;;;;5074648;28;20276;-71
2023/01/22 11:55:09;;;;;;;23.43;15.50;;;2.20;66.70;;;;;;4992577;28;20199;-70
2023/01/22 11:57:42;;;;;;;23.53;15.60;;;2.20;62.60;;;;;;4976284;28;20234;-71
2023/01/22 12:00:41;;;;;;;27.90;15.03;;;2.40;60.80;;;;;;4992449;28;20639;-70
2023/01/22 12:03:29;;;;;;;23.33;14.83;;;2.40;55.60;;;;;;4993345;28;20187;-72
2023/01/22 12:06:11;;;;;;;29.10;15.20;;;2.50;54.40;;;;;;4992564;28;20239;-71
2023/01/22 12:08:55;;;;;;;21.87;14.77;;;2.40;52.20;;;;;;4992152;28;20179;-70
2023/01/22 12:11:40;;;;;;;21.23;15.33;;;2.30;53.70;;;;;;4991931;28;20183;-70
2023/01/22 12:14:26;;;;;;;22.80;14.87;;;2.10;58.30;;;;;;4992905;28;20179;-71
2023/01/22 12:17:04;;;;;;;26.63;15.13;;;2.10;66.00;;;;;;4982161;28;20195;-71
2023/01/22 12:19:50;;;;;;;21.50;15.10;;;1.90;66.10;;;;;;4992196;28;20172;-70
2023/01/22 12:22:36;;;;;;;23.10;14.80;;;2.00;72.10;;;;;;4992709;28;20186;-70
2023/01/22 12:25:20;;;;;;;24.23;15.27;;;1.80;72.50;;;;;;4992261;28;20183;-71
2023/01/22 12:27:54;;;;;;;23.53;14.10;;;1.90;80.10;;;;;;4992736;28;20311;-71
2023/01/22 12:30:26;;;;;;;24.87;15.53;;;1.90;81.40;;;;;;5001830;28;20180;-71
2023/01/22 12:32:57;;;;;;;28.13;16.40;;;2.00;82.10;;;;;;5073952;28;20172;-73
2023/01/22 12:35:25;;;;;;;23.70;15.27;;;2.20;82.40;;;;;;5073522;28;20168;-72
2023/01/22 12:38:32;;;;;;;21.83;15.30;;;2.20;75.70;;;;;;5073028;28;20173;-71
2023/01/22 12:41:13;;;;;;;22.73;15.30;;;2.30;74.50;;;;;;5073412;28;20635;-71
2023/01/22 12:43:54;;;;;;;22.80;15.20;;;2.50;71.10;;;;;;5073498;28;20176;-70
2023/01/22 12:46:41;;;;;;;21.37;15.23;;;2.50;65.40;;;;;;5070952;28;20357;-71
2023/01/22 12:49:15;;;;;;;25.67;15.50;;;2.60;63.10;;;;;;5071735;28;20655;-71
2023/01/22 12:51:52;;;;;;;24.53;16.57;;;2.60;60.00;;;;;;5073479;28;20173;-71
2023/01/22 12:54:34;;;;;;;28.17;16.87;;;2.70;62.40;;;;;;5073066;28;20338;-70
2023/01/22 12:57:26;;;;;;;24.63;16.00;;;2.80;57.40;;;;;;5072999;28;20521;-71